»·PEaware :: JUS326 KPSC-KBFI

JUS326 :: KPSC-KBFI

FLIGHT INFORMATION

Flight Status: Arrived
Operator:
USA Jet
More flights by this operator :: More flights under this callsign
Pilot: Erik S. (3779)
Aircraft: BOEING 737-300
(B733)
More flights by this aircraft type
Origin: KPSC Tri-Cities
United States
Destination: KBFI Boeing Field/King Co Intl
United States
More flights between these airports :: More routes between these airports
Route: PSC V204 YKM V4 CHINS CHINS2
File this flight plan on PilotEdge
Remarks:
Altitude:
(Current/Filed)
22,000ft
Speed:
(Current/Filed)
400kts
Departed: 15-Dec-17 09:42 PM
Arrived: 15-Dec-17 10:22 PM
Distance/Time
Traveled:
151nm/0:40
Distance/Time
To Go:
Arrived

Flight Plot

Page will automatically refresh every two minutes.

Flight plan parsing failed; only flown route is shown


Map Options




Map Legend


Flown Route
Filed Route
Departure Airport
Arrival Airport
Navaid (VOR, NDB)
Fix

Horizontal Profiles

Position Reports

Time Latitude Longitude Heading Altitude Ground
Speed
15-Dec-17 21:34 46.262471 -119.105531 162 417ft 0kts
15-Dec-17 21:35 46.262471 -119.105531 162 417ft 0kts
15-Dec-17 21:36 46.262471 -119.105531 162 417ft 0kts
15-Dec-17 21:37 46.262471 -119.105531 162 417ft 0kts
15-Dec-17 21:38 46.262471 -119.105531 162 417ft 0kts
15-Dec-17 21:39 46.262471 -119.105531 162 417ft 0kts
15-Dec-17 21:40 46.262471 -119.105531 162 417ft 0kts
15-Dec-17 21:41 46.262471 -119.105531 162 417ft 0kts
15-Dec-17 21:42 46.262471 -119.105531 162 417ft 0kts
15-Dec-17 21:43 46.262471 -119.105531 162 417ft 0kts
15-Dec-17 21:44 46.262471 -119.105531 162 417ft 0kts
15-Dec-17 21:45 46.262329 -119.105463 161 417ft 3kts
15-Dec-17 21:46 46.260215 -119.105150 162 417ft 11kts
15-Dec-17 21:47 46.259080 -119.107774 316 417ft 11kts
15-Dec-17 21:48 46.279253 -119.136938 314 1481ft 153kts
15-Dec-17 21:49 46.314249 -119.188664 308 3501ft 208kts
15-Dec-17 21:50 46.330202 -119.277019 284 5734ft 255kts
15-Dec-17 21:51 46.350392 -119.376735 286 8759ft 265kts
15-Dec-17 21:52 46.373526 -119.486938 287 10428ft 314kts
15-Dec-17 21:53 46.398680 -119.606762 287 13269ft 314kts
15-Dec-17 21:54 46.424048 -119.728183 287 15579ft 323kts
15-Dec-17 21:55 46.449070 -119.848661 287 17611ft 331kts
15-Dec-17 21:56 46.474771 -119.973165 287 19448ft 339kts
15-Dec-17 21:57 46.500643 -120.099506 286 21097ft 347kts
15-Dec-17 21:58 46.528123 -120.234519 286 22239ft 354kts
15-Dec-17 21:59 46.553941 -120.362314 286 22219ft 353kts
15-Dec-17 22:00 46.593255 -120.493135 303 22190ft 383kts
15-Dec-17 22:01 46.655489 -120.622747 303 22231ft 395kts
15-Dec-17 22:02 46.715003 -120.748108 303 22230ft 394kts
15-Dec-17 22:03 46.777274 -120.879797 303 22214ft 394kts
15-Dec-17 22:04 46.838496 -121.009926 303 22201ft 392kts
15-Dec-17 22:05 46.898772 -121.138321 304 22193ft 374kts
15-Dec-17 22:06 46.955553 -121.259068 305 21666ft 365kts
15-Dec-17 22:07 47.010482 -121.377056 305 19169ft 341kts
15-Dec-17 22:08 47.062246 -121.488722 305 16676ft 325kts
15-Dec-17 22:09 47.110382 -121.593963 305 16282ft 309kts
15-Dec-17 22:10 47.155736 -121.692853 305 14845ft 281kts
15-Dec-17 22:11 47.198702 -121.786682 304 12775ft 274kts
15-Dec-17 22:12 47.239459 -121.876463 304 12004ft 267kts
15-Dec-17 22:13 47.280633 -121.967112 304 12000ft 267kts
15-Dec-17 22:14 47.317025 -122.062162 295 11999ft 268kts
15-Dec-17 22:15 47.346514 -122.162442 295 10342ft 267kts
15-Dec-17 22:16 47.375989 -122.261015 295 9987ft 263kts
15-Dec-17 22:17 47.420052 -122.342837 325 9695ft 265kts
15-Dec-17 22:18 47.480709 -122.401900 325 7796ft 260kts
15-Dec-17 22:19 47.539349 -122.462126 325 5909ft 257kts
15-Dec-17 22:20 47.597115 -122.522444 325 4108ft 255kts
15-Dec-17 22:21 47.659529 -122.545183 39 2365ft 248kts
15-Dec-17 22:22 47.689014 -122.470334 105 2213ft 177kts
15-Dec-17 22:23 47.661412 -122.414291 143 2188ft 164kts
15-Dec-17 22:24 47.623584 -122.381357 151 1955ft 146kts
15-Dec-17 22:25 47.589475 -122.352890 150 1150ft 140kts
15-Dec-17 22:26 47.556111 -122.324564 150 403ft 138kts
15-Dec-17 22:27 47.526040 -122.299206 149 27ft 69kts
15-Dec-17 22:28 47.525343 -122.296895 330 27ft 14kts
15-Dec-17 22:29 47.528864 -122.298449 344 27ft 14kts
15-Dec-17 22:30 47.532451 -122.300982 19 27ft 10kts
15-Dec-17 22:31 47.532690 -122.300656 66 27ft 0kts
15-Dec-17 22:32 47.532690 -122.300656 66 27ft 0kts
15-Dec-17 22:33 47.532690 -122.300656 66 27ft 0kts
15-Dec-17 22:34 47.532690 -122.300656 66 27ft 0kts
15-Dec-17 22:35 47.532690 -122.300656 66 27ft 0kts
15-Dec-17 22:36 47.532690 -122.300656 66 27ft 0kts
15-Dec-17 22:37 47.532690 -122.300656 66 27ft 0kts

Navigation Log

Ident Type
Flight plan parsing failed, navigation log unavailable